sensor_id;sensor_type;location;lat;lon;timestamp;temperature;humidity
6293;DHT22;3179;54.350;10.102;2023-02-28T00:00:13;7.00;99.90
6293;DHT22;3179;54.350;10.102;2023-02-28T00:02:41;7.10;99.90
6293;DHT22;3179;54.350;10.102;2023-02-28T00:05:12;7.10;99.90
6293;DHT22;3179;54.350;10.102;2023-02-28T00:07:39;7.10;99.90
6293;DHT22;3179;54.350;10.102;2023-02-28T00:10:10;7.10;99.90
6293;DHT22;3179;54.350;10.102;2023-02-28T00:12:37;7.00;99.90
6293;DHT22;3179;54.350;10.102;2023-02-28T00:15:06;7.10;99.90
6293;DHT22;3179;54.350;10.102;2023-02-28T00:17:33;7.10;99.90
6293;DHT22;3179;54.350;10.102;2023-02-28T00:20:00;7.10;99.90
6293;DHT22;3179;54.350;10.102;2023-02-28T00:22:40;7.00;99.90
6293;DHT22;3179;54.350;10.102;2023-02-28T00:25:08;7.10;99.90
6293;DHT22;3179;54.350;10.102;2023-02-28T00:27:36;7.10;99.90
6293;DHT22;3179;54.350;10.102;2023-02-28T00:30:04;7.10;99.90
6293;DHT22;3179;54.350;10.102;2023-02-28T00:32:31;7.10;99.90
6293;DHT22;3179;54.350;10.102;2023-02-28T00:35:00;7.10;99.90
6293;DHT22;3179;54.350;10.102;2023-02-28T00:37:27;7.10;99.90
6293;DHT22;3179;54.350;10.102;2023-02-28T00:39:55;7.10;99.90
6293;DHT22;3179;54.350;10.102;2023-02-28T00:42:21;7.00;99.90
6293;DHT22;3179;54.350;10.102;2023-02-28T00:44:48;7.00;99.90
6293;DHT22;3179;54.350;10.102;2023-02-28T00:47:15;7.00;99.90
6293;DHT22;3179;54.350;10.102;2023-02-28T00:49:42;7.00;99.90
6293;DHT22;3179;54.350;10.102;2023-02-28T00:52:09;7.00;99.90
6293;DHT22;3179;54.350;10.102;2023-02-28T00:54:36;7.00;99.90
6293;DHT22;3179;54.350;10.102;2023-02-28T00:57:04;7.00;99.90
6293;DHT22;3179;54.350;10.102;2023-02-28T00:59:31;7.00;99.90
6293;DHT22;3179;54.350;10.102;2023-02-28T01:01:58;7.00;99.90
6293;DHT22;3179;54.350;10.102;2023-02-28T01:04:25;7.00;99.90
6293;DHT22;3179;54.350;10.102;2023-02-28T01:06:52;7.00;99.90
6293;DHT22;3179;54.350;10.102;2023-02-28T01:09:19;7.00;99.90
6293;DHT22;3179;54.350;10.102;2023-02-28T01:11:46;7.00;99.90
6293;DHT22;3179;54.350;10.102;2023-02-28T01:14:16;7.00;99.90
6293;DHT22;3179;54.350;10.102;2023-02-28T01:16:43;7.00;99.90
6293;DHT22;3179;54.350;10.102;2023-02-28T01:19:10;7.00;99.90
6293;DHT22;3179;54.350;10.102;2023-02-28T01:21:37;7.00;99.90
6293;DHT22;3179;54.350;10.102;2023-02-28T01:24:05;7.00;99.90
6293;DHT22;3179;54.350;10.102;2023-02-28T01:26:32;7.00;99.90
6293;DHT22;3179;54.350;10.102;2023-02-28T01:28:59;7.00;99.90
6293;DHT22;3179;54.350;10.102;2023-02-28T01:31:27;7.00;99.90
6293;DHT22;3179;54.350;10.102;2023-02-28T01:33:54;7.00;99.90
6293;DHT22;3179;54.350;10.102;2023-02-28T01:36:23;7.00;99.90
6293;DHT22;3179;54.350;10.102;2023-02-28T01:38:50;7.00;99.90
6293;DHT22;3179;54.350;10.102;2023-02-28T01:41:19;7.00;99.90
6293;DHT22;3179;54.350;10.102;2023-02-28T01:43:55;7.00;99.90
6293;DHT22;3179;54.350;10.102;2023-02-28T01:46:22;7.00;99.90
6293;DHT22;3179;54.350;10.102;2023-02-28T01:48:53;7.00;99.90
6293;DHT22;3179;54.350;10.102;2023-02-28T01:51:23;6.90;99.90
6293;DHT22;3179;54.350;10.102;2023-02-28T01:53:54;7.00;99.90
6293;DHT22;3179;54.350;10.102;2023-02-28T01:56:24;6.90;99.90
6293;DHT22;3179;54.350;10.102;2023-02-28T01:58:53;6.90;99.90
6293;DHT22;3179;54.350;10.102;2023-02-28T02:01:21;6.90;99.90
6293;DHT22;3179;54.350;10.102;2023-02-28T02:03:52;6.90;99.90
6293;DHT22;3179;54.350;10.102;2023-02-28T02:06:21;6.90;99.90
6293;DHT22;3179;54.350;10.102;2023-02-28T02:08:48;6.90;99.90
6293;DHT22;3179;54.350;10.102;2023-02-28T02:11:17;6.90;99.90
6293;DHT22;3179;54.350;10.102;2023-02-28T02:14:06;6.90;99.90
6293;DHT22;3179;54.350;10.102;2023-02-28T02:16:42;6.90;99.90
6293;DHT22;3179;54.350;10.102;2023-02-28T02:19:29;6.90;99.90
6293;DHT22;3179;54.350;10.102;2023-02-28T02:22:17;6.90;99.90
6293;DHT22;3179;54.350;10.102;2023-02-28T02:25:14;6.90;99.90
6293;DHT22;3179;54.350;10.102;2023-02-28T02:34:31;6.80;99.90
6293;DHT22;3179;54.350;10.102;2023-02-28T02:37:15;6.80;99.90
6293;DHT22;3179;54.350;10.102;2023-02-28T02:39:50;6.80;99.90
6293;DHT22;3179;54.350;10.102;2023-02-28T02:42:23;6.80;99.90
6293;DHT22;3179;54.350;10.102;2023-02-28T02:44:58;6.80;99.90
6293;DHT22;3179;54.350;10.102;2023-02-28T02:47:28;6.80;99.90
6293;DHT22;3179;54.350;10.102;2023-02-28T02:49:59;6.80;99.90
6293;DHT22;3179;54.350;10.102;2023-02-28T02:52:34;6.70;99.90
6293;DHT22;3179;54.350;10.102;2023-02-28T02:55:05;6.70;99.90
6293;DHT22;3179;54.350;10.102;2023-02-28T02:57:37;6.70;99.90
6293;DHT22;3179;54.350;10.102;2023-02-28T03:00:08;6.70;99.90
6293;DHT22;3179;54.350;10.102;2023-02-28T03:02:37;6.70;99.90
6293;DHT22;3179;54.350;10.102;2023-02-28T03:05:12;6.70;99.90
6293;DHT22;3179;54.350;10.102;2023-02-28T03:07:41;6.70;99.90
6293;DHT22;3179;54.350;10.102;2023-02-28T03:10:29;6.60;99.90
6293;DHT22;3179;54.350;10.102;2023-02-28T03:13:08;6.60;99.90
6293;DHT22;3179;54.350;10.102;2023-02-28T03:15:42;6.60;99.90
6293;DHT22;3179;54.350;10.102;2023-02-28T03:18:20;6.60;99.90
6293;DHT22;3179;54.350;10.102;2023-02-28T03:21:00;6.60;99.90
6293;DHT22;3179;54.350;10.102;2023-02-28T03:23:38;6.60;99.90
6293;DHT22;3179;54.350;10.102;2023-02-28T03:26:12;6.60;99.90
6293;DHT22;3179;54.350;10.102;2023-02-28T03:28:43;6.60;99.90
6293;DHT22;3179;54.350;10.102;2023-02-28T03:31:18;6.50;99.90
6293;DHT22;3179;54.350;10.102;2023-02-28T03:33:49;6.50;99.90
6293;DHT22;3179;54.350;10.102;2023-02-28T03:36:27;6.50;99.90
6293;DHT22;3179;54.350;10.102;2023-02-28T03:38:59;6.50;99.90
6293;DHT22;3179;54.350;10.102;2023-02-28T03:41:32;6.50;99.90
6293;DHT22;3179;54.350;10.102;2023-02-28T03:44:05;6.40;99.90
6293;DHT22;3179;54.350;10.102;2023-02-28T03:46:37;6.40;99.90
6293;DHT22;3179;54.350;10.102;2023-02-28T03:49:09;6.40;99.90
6293;DHT22;3179;54.350;10.102;2023-02-28T03:51:41;6.40;99.90
6293;DHT22;3179;54.350;10.102;2023-02-28T03:54:16;6.30;99.90
6293;DHT22;3179;54.350;10.102;2023-02-28T03:56:50;6.30;99.90
6293;DHT22;3179;54.350;10.102;2023-02-28T03:59:22;6.30;99.90
6293;DHT22;3179;54.350;10.102;2023-02-28T04:01:52;6.20;99.90
6293;DHT22;3179;54.350;10.102;2023-02-28T04:04:21;6.20;99.90
6293;DHT22;3179;54.350;10.102;2023-02-28T04:06:51;6.20;99.90
6293;DHT22;3179;54.350;10.102;2023-02-28T04:09:19;6.20;99.90
6293;DHT22;3179;54.350;10.102;2023-02-28T04:11:48;6.10;99.90
6293;DHT22;3179;54.350;10.102;2023-02-28T04:14:17;6.10;99.90
6293;DHT22;3179;54.350;10.102;2023-02-28T04:16:44;6.00;99.90
6293;DHT22;3179;54.350;10.102;2023-02-28T04:19:12;6.00;99.90
6293;DHT22;3179;54.350;10.102;2023-02-28T04:21:41;6.00;99.90
6293;DHT22;3179;54.350;10.102;2023-02-28T04:24:11;6.00;99.90
6293;DHT22;3179;54.350;10.102;2023-02-28T04:26:41;5.90;99.90
6293;DHT22;3179;54.350;10.102;2023-02-28T04:29:10;5.90;99.90
6293;DHT22;3179;54.350;10.102;2023-02-28T04:31:37;5.90;99.90
6293;DHT22;3179;54.350;10.102;2023-02-28T04:34:04;5.80;99.90
6293;DHT22;3179;54.350;10.102;2023-02-28T04:36:31;5.80;99.90
6293;DHT22;3179;54.350;10.102;2023-02-28T04:38:58;5.80;99.90
6293;DHT22;3179;54.350;10.102;2023-02-28T04:41:26;5.80;99.90
6293;DHT22;3179;54.350;10.102;2023-02-28T04:43:53;5.80;99.90
6293;DHT22;3179;54.350;10.102;2023-02-28T04:46:21;5.70;99.90
6293;DHT22;3179;54.350;10.102;2023-02-28T04:48:48;5.70;99.90
6293;DHT22;3179;54.350;10.102;2023-02-28T04:51:17;5.70;99.90
6293;DHT22;3179;54.350;10.102;2023-02-28T04:53:44;5.60;99.90
6293;DHT22;3179;54.350;10.102;2023-02-28T04:56:12;5.60;99.90
6293;DHT22;3179;54.350;10.102;2023-02-28T04:58:40;5.60;99.90
6293;DHT22;3179;54.350;10.102;2023-02-28T05:01:17;5.60;99.90
6293;DHT22;3179;54.350;10.102;2023-02-28T05:03:44;5.60;99.90
6293;DHT22;3179;54.350;10.102;2023-02-28T05:06:12;5.50;99.90
6293;DHT22;3179;54.350;10.102;2023-02-28T05:08:39;5.50;99.90
6293;DHT22;3179;54.350;10.102;2023-02-28T05:11:10;5.50;99.90
6293;DHT22;3179;54.350;10.102;2023-02-28T05:13:40;5.50;99.90
6293;DHT22;3179;54.350;10.102;2023-02-28T05:16:07;5.50;99.90
6293;DHT22;3179;54.350;10.102;2023-02-28T05:18:34;5.40;99.90
6293;DHT22;3179;54.350;10.102;2023-02-28T05:21:00;5.40;99.90
6293;DHT22;3179;54.350;10.102;2023-02-28T05:23:28;5.40;99.90
6293;DHT22;3179;54.350;10.102;2023-02-28T05:25:56;5.30;99.90
6293;DHT22;3179;54.350;10.102;2023-02-28T05:28:23;5.40;99.90
6293;DHT22;3179;54.350;10.102;2023-02-28T05:30:51;5.30;99.90
6293;DHT22;3179;54.350;10.102;2023-02-28T05:33:17;5.30;99.90
6293;DHT22;3179;54.350;10.102;2023-02-28T05:35:44;5.30;99.90
6293;DHT22;3179;54.350;10.102;2023-02-28T05:38:11;5.20;99.90
6293;DHT22;3179;54.350;10.102;2023-02-28T05:40:38;5.20;99.90
6293;DHT22;3179;54.350;10.102;2023-02-28T05:43:05;5.20;99.90
6293;DHT22;3179;54.350;10.102;2023-02-28T05:45:32;5.20;99.90
6293;DHT22;3179;54.350;10.102;2023-02-28T05:48:00;5.20;99.90
6293;DHT22;3179;54.350;10.102;2023-02-28T05:50:27;5.20;99.90
6293;DHT22;3179;54.350;10.102;2023-02-28T05:52:53;5.20;99.90
6293;DHT22;3179;54.350;10.102;2023-02-28T05:55:20;5.10;99.90
6293;DHT22;3179;54.350;10.102;2023-02-28T05:57:47;5.10;99.90
6293;DHT22;3179;54.350;10.102;2023-02-28T06:00:14;5.10;99.90
6293;DHT22;3179;54.350;10.102;2023-02-28T06:02:43;5.10;99.90
6293;DHT22;3179;54.350;10.102;2023-02-28T06:05:14;5.10;99.90
6293;DHT22;3179;54.350;10.102;2023-02-28T06:07:40;5.10;99.90
6293;DHT22;3179;54.350;10.102;2023-02-28T06:10:10;5.10;99.90
6293;DHT22;3179;54.350;10.102;2023-02-28T06:12:37;5.10;99.90
6293;DHT22;3179;54.350;10.102;2023-02-28T06:15:04;5.10;99.90
6293;DHT22;3179;54.350;10.102;2023-02-28T06:17:31;5.00;99.90
6293;DHT22;3179;54.350;10.102;2023-02-28T06:19:58;5.00;99.90
6293;DHT22;3179;54.350;10.102;2023-02-28T06:22:26;5.00;99.90
6293;DHT22;3179;54.350;10.102;2023-02-28T06:24:53;5.00;99.90
6293;DHT22;3179;54.350;10.102;2023-02-28T06:27:20;5.00;99.90
6293;DHT22;3179;54.350;10.102;2023-02-28T06:29:47;5.00;99.90
6293;DHT22;3179;54.350;10.102;2023-02-28T06:32:14;5.00;99.90
6293;DHT22;3179;54.350;10.102;2023-02-28T06:34:41;4.90;99.90
6293;DHT22;3179;54.350;10.102;2023-02-28T06:37:08;4.90;99.90
6293;DHT22;3179;54.350;10.102;2023-02-28T06:39:36;4.90;99.90
6293;DHT22;3179;54.350;10.102;2023-02-28T06:42:02;4.90;99.90
6293;DHT22;3179;54.350;10.102;2023-02-28T06:44:29;4.90;99.90
6293;DHT22;3179;54.350;10.102;2023-02-28T06:47:01;4.90;99.90
6293;DHT22;3179;54.350;10.102;2023-02-28T06:49:28;4.90;99.90
6293;DHT22;3179;54.350;10.102;2023-02-28T06:51:55;4.90;99.90
6293;DHT22;3179;54.350;10.102;2023-02-28T06:54:22;4.90;99.90
6293;DHT22;3179;54.350;10.102;2023-02-28T06:56:50;4.90;99.90
6293;DHT22;3179;54.350;10.102;2023-02-28T06:59:19;4.90;99.90
6293;DHT22;3179;54.350;10.102;2023-02-28T07:01:45;4.90;99.90
6293;DHT22;3179;54.350;10.102;2023-02-28T07:04:12;4.90;99.90
6293;DHT22;3179;54.350;10.102;2023-02-28T07:06:39;4.90;99.90
6293;DHT22;3179;54.350;10.102;2023-02-28T07:09:06;4.90;99.90
6293;DHT22;3179;54.350;10.102;2023-02-28T07:11:33;4.90;99.90
6293;DHT22;3179;54.350;10.102;2023-02-28T07:14:01;4.90;99.90
6293;DHT22;3179;54.350;10.102;2023-02-28T07:16:28;4.90;99.90
6293;DHT22;3179;54.350;10.102;2023-02-28T07:18:55;4.90;99.90
6293;DHT22;3179;54.350;10.102;2023-02-28T07:21:22;4.90;99.90
6293;DHT22;3179;54.350;10.102;2023-02-28T07:23:49;4.90;99.90
6293;DHT22;3179;54.350;10.102;2023-02-28T07:26:18;4.90;99.90
6293;DHT22;3179;54.350;10.102;2023-02-28T07:28:46;4.90;99.90
6293;DHT22;3179;54.350;10.102;2023-02-28T07:31:16;5.00;99.90
6293;DHT22;3179;54.350;10.102;2023-02-28T07:33:43;5.00;99.90
6293;DHT22;3179;54.350;10.102;2023-02-28T07:36:12;5.00;99.90
6293;DHT22;3179;54.350;10.102;2023-02-28T07:38:41;5.00;99.90
6293;DHT22;3179;54.350;10.102;2023-02-28T07:41:09;5.00;99.90
6293;DHT22;3179;54.350;10.102;2023-02-28T07:43:36;5.10;99.90
6293;DHT22;3179;54.350;10.102;2023-02-28T07:46:04;5.10;99.90
6293;DHT22;3179;54.350;10.102;2023-02-28T07:48:32;5.10;99.90
6293;DHT22;3179;54.350;10.102;2023-02-28T07:51:00;5.20;99.90
6293;DHT22;3179;54.350;10.102;2023-02-28T07:53:27;5.20;99.90
6293;DHT22;3179;54.350;10.102;2023-02-28T07:55:55;5.30;99.90
6293;DHT22;3179;54.350;10.102;2023-02-28T07:58:23;5.30;99.90
6293;DHT22;3179;54.350;10.102;2023-02-28T08:00:50;5.30;99.90
6293;DHT22;3179;54.350;10.102;2023-02-28T08:03:18;5.40;99.90
6293;DHT22;3179;54.350;10.102;2023-02-28T08:05:46;5.40;99.90
6293;DHT22;3179;54.350;10.102;2023-02-28T08:08:13;5.40;99.90
6293;DHT22;3179;54.350;10.102;2023-02-28T08:10:40;5.50;99.90
6293;DHT22;3179;54.350;10.102;2023-02-28T08:13:07;5.50;99.90
6293;DHT22;3179;54.350;10.102;2023-02-28T08:15:34;5.60;99.90
6293;DHT22;3179;54.350;10.102;2023-02-28T08:18:01;5.60;99.90
6293;DHT22;3179;54.350;10.102;2023-02-28T08:20:28;5.60;99.90
6293;DHT22;3179;54.350;10.102;2023-02-28T08:22:56;5.70;99.90
6293;DHT22;3179;54.350;10.102;2023-02-28T08:25:23;5.70;99.90
6293;DHT22;3179;54.350;10.102;2023-02-28T08:27:50;5.70;99.90
6293;DHT22;3179;54.350;10.102;2023-02-28T08:30:17;5.70;99.90
6293;DHT22;3179;54.350;10.102;2023-02-28T08:32:44;5.80;99.90
6293;DHT22;3179;54.350;10.102;2023-02-28T08:35:11;5.80;99.90
6293;DHT22;3179;54.350;10.102;2023-02-28T08:37:38;5.80;99.90
6293;DHT22;3179;54.350;10.102;2023-02-28T08:40:07;5.90;99.90
6293;DHT22;3179;54.350;10.102;2023-02-28T08:42:34;5.90;99.90
6293;DHT22;3179;54.350;10.102;2023-02-28T08:45:01;5.90;99.90
6293;DHT22;3179;54.350;10.102;2023-02-28T08:47:28;5.90;99.90
6293;DHT22;3179;54.350;10.102;2023-02-28T08:49:55;6.00;99.90
6293;DHT22;3179;54.350;10.102;2023-02-28T08:52:21;6.00;99.90
6293;DHT22;3179;54.350;10.102;2023-02-28T08:54:48;6.10;99.90
6293;DHT22;3179;54.350;10.102;2023-02-28T08:57:16;6.10;99.90
6293;DHT22;3179;54.350;10.102;2023-02-28T08:59:43;6.20;99.90
6293;DHT22;3179;54.350;10.102;2023-02-28T09:02:12;6.30;99.90
6293;DHT22;3179;54.350;10.102;2023-02-28T09:04:40;6.30;99.90
6293;DHT22;3179;54.350;10.102;2023-02-28T09:07:07;6.30;99.90
6293;DHT22;3179;54.350;10.102;2023-02-28T09:09:34;6.40;99.90
6293;DHT22;3179;54.350;10.102;2023-02-28T09:12:01;6.40;99.90
6293;DHT22;3179;54.350;10.102;2023-02-28T09:14:29;6.50;99.90
6293;DHT22;3179;54.350;10.102;2023-02-28T09:16:56;6.50;99.90
6293;DHT22;3179;54.350;10.102;2023-02-28T09:19:23;6.50;99.90
6293;DHT22;3179;54.350;10.102;2023-02-28T09:21:49;6.60;99.90
6293;DHT22;3179;54.350;10.102;2023-02-28T09:24:17;6.60;99.90
6293;DHT22;3179;54.350;10.102;2023-02-28T09:26:45;6.70;99.90
6293;DHT22;3179;54.350;10.102;2023-02-28T09:29:12;6.70;99.90
6293;DHT22;3179;54.350;10.102;2023-02-28T09:31:42;6.70;99.90
6293;DHT22;3179;54.350;10.102;2023-02-28T09:34:09;6.70;99.90
6293;DHT22;3179;54.350;10.102;2023-02-28T09:36:36;6.80;99.90
6293;DHT22;3179;54.350;10.102;2023-02-28T09:39:03;6.80;99.90
6293;DHT22;3179;54.350;10.102;2023-02-28T09:41:37;6.90;99.90
6293;DHT22;3179;54.350;10.102;2023-02-28T09:44:06;6.90;99.90
6293;DHT22;3179;54.350;10.102;2023-02-28T09:46:40;7.00;99.90
6293;DHT22;3179;54.350;10.102;2023-02-28T09:49:12;7.00;99.90
6293;DHT22;3179;54.350;10.102;2023-02-28T09:51:46;7.10;99.90
6293;DHT22;3179;54.350;10.102;2023-02-28T09:54:16;7.10;99.90
6293;DHT22;3179;54.350;10.102;2023-02-28T09:56:47;7.20;99.90
6293;DHT22;3179;54.350;10.102;2023-02-28T09:59:36;7.20;99.90
6293;DHT22;3179;54.350;10.102;2023-02-28T10:02:21;7.30;99.90
6293;DHT22;3179;54.350;10.102;2023-02-28T10:04:56;7.40;99.90
6293;DHT22;3179;54.350;10.102;2023-02-28T10:07:40;7.50;99.90
6293;DHT22;3179;54.350;10.102;2023-02-28T10:10:19;7.60;99.90
6293;DHT22;3179;54.350;10.102;2023-02-28T10:12:47;7.60;99.90
6293;DHT22;3179;54.350;10.102;2023-02-28T10:15:15;7.70;99.90
6293;DHT22;3179;54.350;10.102;2023-02-28T10:17:47;7.80;99.90
6293;DHT22;3179;54.350;10.102;2023-02-28T10:20:20;7.90;99.90
6293;DHT22;3179;54.350;10.102;2023-02-28T10:22:52;8.00;99.90
6293;DHT22;3179;54.350;10.102;2023-02-28T10:25:22;8.10;99.90
6293;DHT22;3179;54.350;10.102;2023-02-28T10:27:49;8.10;99.90
6293;DHT22;3179;54.350;10.102;2023-02-28T10:30:19;8.20;99.90
6293;DHT22;3179;54.350;10.102;2023-02-28T10:32:49;8.30;99.90
6293;DHT22;3179;54.350;10.102;2023-02-28T10:35:21;8.30;99.90
6293;DHT22;3179;54.350;10.102;2023-02-28T10:37:51;8.30;99.90
6293;DHT22;3179;54.350;10.102;2023-02-28T10:40:29;8.40;99.90
6293;DHT22;3179;54.350;10.102;2023-02-28T10:42:58;8.50;99.90
6293;DHT22;3179;54.350;10.102;2023-02-28T10:45:25;8.50;99.90
6293;DHT22;3179;54.350;10.102;2023-02-28T10:47:54;8.60;99.90
6293;DHT22;3179;54.350;10.102;2023-02-28T10:50:34;8.60;99.90
6293;DHT22;3179;54.350;10.102;2023-02-28T10:53:31;8.70;99.90
6293;DHT22;3179;54.350;10.102;2023-02-28T10:56:00;8.80;99.90
6293;DHT22;3179;54.350;10.102;2023-02-28T10:58:29;8.90;99.90
6293;DHT22;3179;54.350;10.102;2023-02-28T11:00:56;8.90;99.90
6293;DHT22;3179;54.350;10.102;2023-02-28T11:03:28;9.00;99.90
6293;DHT22;3179;54.350;10.102;2023-02-28T11:05:57;9.00;99.90
6293;DHT22;3179;54.350;10.102;2023-02-28T11:08:24;9.00;99.90
6293;DHT22;3179;54.350;10.102;2023-02-28T11:10:55;9.10;99.90
6293;DHT22;3179;54.350;10.102;2023-02-28T11:13:27;9.20;99.90
6293;DHT22;3179;54.350;10.102;2023-02-28T11:15:56;9.30;99.90
6293;DHT22;3179;54.350;10.102;2023-02-28T11:18:27;9.30;99.90
6293;DHT22;3179;54.350;10.102;2023-02-28T11:20:58;9.40;99.90
6293;DHT22;3179;54.350;10.102;2023-02-28T11:23:27;9.50;99.90
6293;DHT22;3179;54.350;10.102;2023-02-28T11:25:58;9.50;99.90
6293;DHT22;3179;54.350;10.102;2023-02-28T11:28:28;9.60;99.90
6293;DHT22;3179;54.350;10.102;2023-02-28T11:31:08;9.70;99.90
6293;DHT22;3179;54.350;10.102;2023-02-28T11:33:42;9.90;99.90
6293;DHT22;3179;54.350;10.102;2023-02-28T11:36:14;9.90;99.90
6293;DHT22;3179;54.350;10.102;2023-02-28T11:38:42;9.90;99.90
6293;DHT22;3179;54.350;10.102;2023-02-28T11:41:22;9.90;99.90
6293;DHT22;3179;54.350;10.102;2023-02-28T11:44:08;10.00;99.90
6293;DHT22;3179;54.350;10.102;2023-02-28T11:46:42;10.00;99.90
6293;DHT22;3179;54.350;10.102;2023-02-28T11:49:21;10.00;99.90
6293;DHT22;3179;54.350;10.102;2023-02-28T11:51:55;10.10;99.90
6293;DHT22;3179;54.350;10.102;2023-02-28T11:54:30;10.10;99.90
6293;DHT22;3179;54.350;10.102;2023-02-28T11:57:03;10.10;99.90
6293;DHT22;3179;54.350;10.102;2023-02-28T11:59:47;10.00;99.90
6293;DHT22;3179;54.350;10.102;2023-02-28T12:02:25;10.10;99.90
6293;DHT22;3179;54.350;10.102;2023-02-28T12:08:02;10.00;99.90
6293;DHT22;3179;54.350;10.102;2023-02-28T12:10:34;10.10;99.90
6293;DHT22;3179;54.350;10.102;2023-02-28T12:13:10;10.10;99.90
6293;DHT22;3179;54.350;10.102;2023-02-28T12:16:13;10.20;99.90
6293;DHT22;3179;54.350;10.102;2023-02-28T12:18:53;10.30;99.90
6293;DHT22;3179;54.350;10.102;2023-02-28T12:21:31;10.40;99.90
6293;DHT22;3179;54.350;10.102;2023-02-28T12:26:58;10.50;99.90
6293;DHT22;3179;54.350;10.102;2023-02-28T12:29:28;10.40;99.90
6293;DHT22;3179;54.350;10.102;2023-02-28T12:32:00;10.40;99.90
6293;DHT22;3179;54.350;10.102;2023-02-28T12:34:32;10.40;99.90
6293;DHT22;3179;54.350;10.102;2023-02-28T12:37:03;10.40;99.90
6293;DHT22;3179;54.350;10.102;2023-02-28T12:39:35;10.40;99.90
6293;DHT22;3179;54.350;10.102;2023-02-28T12:42:07;10.50;99.90
6293;DHT22;3179;54.350;10.102;2023-02-28T12:44:43;10.50;99.90
6293;DHT22;3179;54.350;10.102;2023-02-28T12:47:15;10.60;99.90
6293;DHT22;3179;54.350;10.102;2023-02-28T12:49:46;10.60;99.90
6293;DHT22;3179;54.350;10.102;2023-02-28T12:52:25;10.60;99.40
6293;DHT22;3179;54.350;10.102;2023-02-28T12:55:00;10.60;99.90
6293;DHT22;3179;54.350;10.102;2023-02-28T12:57:34;10.60;99.60
6293;DHT22;3179;54.350;10.102;2023-02-28T13:00:08;10.70;99.80
6293;DHT22;3179;54.350;10.102;2023-02-28T13:02:59;10.80;99.90
6293;DHT22;3179;54.350;10.102;2023-02-28T13:09:08;10.90;99.80
6293;DHT22;3179;54.350;10.102;2023-02-28T13:11:43;10.90;99.30
6293;DHT22;3179;54.350;10.102;2023-02-28T13:14:22;10.90;99.50
6293;DHT22;3179;54.350;10.102;2023-02-28T13:16:58;10.90;99.60
6293;DHT22;3179;54.350;10.102;2023-02-28T13:19:27;11.00;99.70
6293;DHT22;3179;54.350;10.102;2023-02-28T13:21:57;11.00;99.70
6293;DHT22;3179;54.350;10.102;2023-02-28T13:24:43;11.00;99.40
6293;DHT22;3179;54.350;10.102;2023-02-28T13:27:22;11.00;99.10
6293;DHT22;3179;54.350;10.102;2023-02-28T13:29:51;11.00;99.10
6293;DHT22;3179;54.350;10.102;2023-02-28T13:32:27;10.90;99.60
6293;DHT22;3179;54.350;10.102;2023-02-28T13:38:34;11.00;98.50
6293;DHT22;3179;54.350;10.102;2023-02-28T13:44:08;10.90;98.90
6293;DHT22;3179;54.350;10.102;2023-02-28T13:46:38;10.90;98.80
6293;DHT22;3179;54.350;10.102;2023-02-28T13:49:25;10.90;99.00
6293;DHT22;3179;54.350;10.102;2023-02-28T13:52:02;10.90;98.60
6293;DHT22;3179;54.350;10.102;2023-02-28T13:54:42;10.90;98.50
6293;DHT22;3179;54.350;10.102;2023-02-28T13:57:22;10.90;98.60
6293;DHT22;3179;54.350;10.102;2023-02-28T14:00:02;10.90;98.90
6293;DHT22;3179;54.350;10.102;2023-02-28T14:02:50;11.00;99.10
6293;DHT22;3179;54.350;10.102;2023-02-28T14:05:24;11.00;98.70
6293;DHT22;3179;54.350;10.102;2023-02-28T14:07:54;11.00;99.40
6293;DHT22;3179;54.350;10.102;2023-02-28T14:10:26;11.00;99.60
6293;DHT22;3179;54.350;10.102;2023-02-28T14:13:01;11.10;99.50
6293;DHT22;3179;54.350;10.102;2023-02-28T14:15:40;11.10;99.00
6293;DHT22;3179;54.350;10.102;2023-02-28T14:18:19;11.00;99.10
6293;DHT22;3179;54.350;10.102;2023-02-28T14:20:48;11.00;98.30
6293;DHT22;3179;54.350;10.102;2023-02-28T14:23:24;10.90;98.80
6293;DHT22;3179;54.350;10.102;2023-02-28T14:25:59;10.90;98.60
6293;DHT22;3179;54.350;10.102;2023-02-28T14:28:43;10.90;98.70
6293;DHT22;3179;54.350;10.102;2023-02-28T14:31:15;11.00;98.50
6293;DHT22;3179;54.350;10.102;2023-02-28T14:34:13;10.90;98.40
6293;DHT22;3179;54.350;10.102;2023-02-28T14:36:44;10.90;98.00
6293;DHT22;3179;54.350;10.102;2023-02-28T14:39:13;10.90;98.60
6293;DHT22;3179;54.350;10.102;2023-02-28T14:41:42;10.90;98.70
6293;DHT22;3179;54.350;10.102;2023-02-28T14:44:16;10.80;98.20
6293;DHT22;3179;54.350;10.102;2023-02-28T14:46:46;10.90;98.40
6293;DHT22;3179;54.350;10.102;2023-02-28T14:49:19;10.90;98.60
6293;DHT22;3179;54.350;10.102;2023-02-28T14:51:48;11.00;98.60
6293;DHT22;3179;54.350;10.102;2023-02-28T14:54:17;11.00;98.70
6293;DHT22;3179;54.350;10.102;2023-02-28T14:56:49;10.90;98.90
6293;DHT22;3179;54.350;10.102;2023-02-28T14:59:34;10.90;98.80
6293;DHT22;3179;54.350;10.102;2023-02-28T15:02:21;10.80;98.60
6293;DHT22;3179;54.350;10.102;2023-02-28T15:04:56;10.80;98.70
6293;DHT22;3179;54.350;10.102;2023-02-28T15:07:23;10.80;98.90
6293;DHT22;3179;54.350;10.102;2023-02-28T15:10:17;10.70;98.90
6293;DHT22;3179;54.350;10.102;2023-02-28T15:12:51;10.70;98.90
6293;DHT22;3179;54.350;10.102;2023-02-28T15:15:19;10.60;99.00
6293;DHT22;3179;54.350;10.102;2023-02-28T15:17:52;10.60;98.90
6293;DHT22;3179;54.350;10.102;2023-02-28T15:20:19;10.60;99.00
6293;DHT22;3179;54.350;10.102;2023-02-28T15:22:47;10.60;98.90
6293;DHT22;3179;54.350;10.102;2023-02-28T15:25:20;10.60;98.80
6293;DHT22;3179;54.350;10.102;2023-02-28T15:27:49;10.50;98.80
6293;DHT22;3179;54.350;10.102;2023-02-28T15:30:20;10.50;98.80
6293;DHT22;3179;54.350;10.102;2023-02-28T15:35:42;10.50;99.10
6293;DHT22;3179;54.350;10.102;2023-02-28T15:38:15;10.60;99.30
6293;DHT22;3179;54.350;10.102;2023-02-28T15:40:44;10.90;99.30
6293;DHT22;3179;54.350;10.102;2023-02-28T15:43:23;11.00;99.20
6293;DHT22;3179;54.350;10.102;2023-02-28T15:45:51;11.00;98.80
6293;DHT22;3179;54.350;10.102;2023-02-28T15:48:20;10.90;98.90
6293;DHT22;3179;54.350;10.102;2023-02-28T15:50:52;10.70;99.10
6293;DHT22;3179;54.350;10.102;2023-02-28T15:53:22;10.70;99.20
6293;DHT22;3179;54.350;10.102;2023-02-28T15:55:56;10.60;99.20
6293;DHT22;3179;54.350;10.102;2023-02-28T15:58:25;10.50;99.40
6293;DHT22;3179;54.350;10.102;2023-02-28T16:01:15;10.40;99.50
6293;DHT22;3179;54.350;10.102;2023-02-28T16:03:45;10.40;99.50
6293;DHT22;3179;54.350;10.102;2023-02-28T16:06:36;10.40;99.70
6293;DHT22;3179;54.350;10.102;2023-02-28T16:09:06;10.30;99.60
6293;DHT22;3179;54.350;10.102;2023-02-28T16:11:38;10.30;99.70
6293;DHT22;3179;54.350;10.102;2023-02-28T16:14:08;10.20;99.40
6293;DHT22;3179;54.350;10.102;2023-02-28T16:16:42;10.20;99.70
6293;DHT22;3179;54.350;10.102;2023-02-28T16:19:09;10.20;99.60
6293;DHT22;3179;54.350;10.102;2023-02-28T16:21:37;10.10;99.70
6293;DHT22;3179;54.350;10.102;2023-02-28T16:24:05;10.10;99.60
6293;DHT22;3179;54.350;10.102;2023-02-28T16:26:32;10.00;99.60
6293;DHT22;3179;54.350;10.102;2023-02-28T16:28:59;10.00;99.70
6293;DHT22;3179;54.350;10.102;2023-02-28T16:31:27;10.00;99.70
6293;DHT22;3179;54.350;10.102;2023-02-28T16:33:54;10.00;99.70
6293;DHT22;3179;54.350;10.102;2023-02-28T16:36:23;9.90;99.90
6293;DHT22;3179;54.350;10.102;2023-02-28T16:38:51;9.90;99.90
6293;DHT22;3179;54.350;10.102;2023-02-28T16:41:21;9.90;99.90
6293;DHT22;3179;54.350;10.102;2023-02-28T16:43:50;9.80;99.90
6293;DHT22;3179;54.350;10.102;2023-02-28T16:46:18;9.80;99.90